sensor_id;sensor_type;location;lat;lon;timestamp;P1;durP1;ratioP1;P2;durP2;ratioP2
59974;SDS011;62136;-35.664;-63.766;2022-10-19T00:01:09;3.03;;;1.75;;
59974;SDS011;62136;-35.664;-63.766;2022-10-19T00:03:40;2.47;;;1.40;;
59974;SDS011;62136;-35.664;-63.766;2022-10-19T00:06:12;1.80;;;1.42;;
59974;SDS011;62136;-35.664;-63.766;2022-10-19T00:09:06;2.38;;;1.38;;
59974;SDS011;62136;-35.664;-63.766;2022-10-19T00:11:36;2.45;;;1.50;;
59974;SDS011;62136;-35.664;-63.766;2022-10-19T00:14:04;3.78;;;1.52;;
59974;SDS011;62136;-35.664;-63.766;2022-10-19T00:16:34;2.50;;;1.35;;
59974;SDS011;62136;-35.664;-63.766;2022-10-19T00:19:04;1.55;;;1.35;;
59974;SDS011;62136;-35.664;-63.766;2022-10-19T00:21:33;2.17;;;1.35;;
59974;SDS011;62136;-35.664;-63.766;2022-10-19T00:24:00;2.78;;;1.00;;
59974;SDS011;62136;-35.664;-63.766;2022-10-19T00:26:28;3.08;;;1.38;;
59974;SDS011;62136;-35.664;-63.766;2022-10-19T00:28:55;3.00;;;1.20;;
59974;SDS011;62136;-35.664;-63.766;2022-10-19T00:31:22;1.95;;;1.33;;
59974;SDS011;62136;-35.664;-63.766;2022-10-19T00:33:52;2.30;;;1.48;;
59974;SDS011;62136;-35.664;-63.766;2022-10-19T00:36:27;2.17;;;1.30;;
59974;SDS011;62136;-35.664;-63.766;2022-10-19T00:38:59;1.63;;;1.38;;
59974;SDS011;62136;-35.664;-63.766;2022-10-19T00:41:28;2.50;;;1.00;;
59974;SDS011;62136;-35.664;-63.766;2022-10-19T00:46:30;2.30;;;1.52;;
59974;SDS011;62136;-35.664;-63.766;2022-10-19T00:49:07;1.77;;;1.30;;
59974;SDS011;62136;-35.664;-63.766;2022-10-19T00:51:43;1.63;;;0.95;;
59974;SDS011;62136;-35.664;-63.766;2022-10-19T00:54:12;1.90;;;1.17;;
59974;SDS011;62136;-35.664;-63.766;2022-10-19T00:56:40;1.60;;;1.08;;
59974;SDS011;62136;-35.664;-63.766;2022-10-19T00:59:15;2.60;;;1.40;;
59974;SDS011;62136;-35.664;-63.766;2022-10-19T01:01:45;2.28;;;1.15;;
59974;SDS011;62136;-35.664;-63.766;2022-10-19T01:04:13;2.05;;;1.08;;
59974;SDS011;62136;-35.664;-63.766;2022-10-19T01:06:41;3.05;;;1.13;;
59974;SDS011;62136;-35.664;-63.766;2022-10-19T01:09:08;2.13;;;1.27;;
59974;SDS011;62136;-35.664;-63.766;2022-10-19T01:11:44;3.25;;;1.27;;
59974;SDS011;62136;-35.664;-63.766;2022-10-19T01:17:25;2.63;;;1.40;;
59974;SDS011;62136;-35.664;-63.766;2022-10-19T01:23:13;2.97;;;1.35;;
59974;SDS011;62136;-35.664;-63.766;2022-10-19T01:31:17;2.75;;;1.10;;
59974;SDS011;62136;-35.664;-63.766;2022-10-19T01:37:00;2.45;;;1.13;;
59974;SDS011;62136;-35.664;-63.766;2022-10-19T01:39:42;3.55;;;1.55;;
59974;SDS011;62136;-35.664;-63.766;2022-10-19T01:42:22;2.50;;;1.10;;
59974;SDS011;62136;-35.664;-63.766;2022-10-19T01:45:31;2.45;;;1.27;;
59974;SDS011;62136;-35.664;-63.766;2022-10-19T01:47:54;2.78;;;1.35;;
59974;SDS011;62136;-35.664;-63.766;2022-10-19T01:50:29;2.70;;;1.20;;
59974;SDS011;62136;-35.664;-63.766;2022-10-19T01:53:09;3.03;;;1.10;;
59974;SDS011;62136;-35.664;-63.766;2022-10-19T01:55:40;2.70;;;1.30;;
59974;SDS011;62136;-35.664;-63.766;2022-10-19T01:58:09;2.85;;;1.10;;
59974;SDS011;62136;-35.664;-63.766;2022-10-19T02:00:41;2.72;;;1.20;;
59974;SDS011;62136;-35.664;-63.766;2022-10-19T02:03:11;4.15;;;1.30;;
59974;SDS011;62136;-35.664;-63.766;2022-10-19T02:05:42;2.58;;;1.25;;
59974;SDS011;62136;-35.664;-63.766;2022-10-19T02:08:13;1.70;;;0.95;;
59974;SDS011;62136;-35.664;-63.766;2022-10-19T02:10:44;3.60;;;1.33;;
59974;SDS011;62136;-35.664;-63.766;2022-10-19T02:13:18;3.47;;;1.48;;
59974;SDS011;62136;-35.664;-63.766;2022-10-19T02:15:47;1.77;;;1.00;;
59974;SDS011;62136;-35.664;-63.766;2022-10-19T02:18:19;2.35;;;1.05;;
59974;SDS011;62136;-35.664;-63.766;2022-10-19T02:20:53;3.17;;;1.10;;
59974;SDS011;62136;-35.664;-63.766;2022-10-19T02:23:22;2.20;;;1.15;;
59974;SDS011;62136;-35.664;-63.766;2022-10-19T02:25:51;4.05;;;1.10;;
59974;SDS011;62136;-35.664;-63.766;2022-10-19T02:28:19;1.80;;;1.20;;
59974;SDS011;62136;-35.664;-63.766;2022-10-19T02:30:47;2.55;;;1.45;;
59974;SDS011;62136;-35.664;-63.766;2022-10-19T02:33:17;3.75;;;1.40;;
59974;SDS011;62136;-35.664;-63.766;2022-10-19T02:35:44;1.52;;;1.20;;
59974;SDS011;62136;-35.664;-63.766;2022-10-19T02:38:16;3.65;;;1.48;;
59974;SDS011;62136;-35.664;-63.766;2022-10-19T02:40:48;3.23;;;1.23;;
59974;SDS011;62136;-35.664;-63.766;2022-10-19T02:43:39;3.60;;;1.15;;
59974;SDS011;62136;-35.664;-63.766;2022-10-19T02:46:20;2.95;;;1.13;;
59974;SDS011;62136;-35.664;-63.766;2022-10-19T02:49:09;3.13;;;1.27;;
59974;SDS011;62136;-35.664;-63.766;2022-10-19T02:51:38;2.03;;;0.93;;
59974;SDS011;62136;-35.664;-63.766;2022-10-19T02:54:19;3.58;;;1.23;;
59974;SDS011;62136;-35.664;-63.766;2022-10-19T02:56:46;3.15;;;1.58;;
59974;SDS011;62136;-35.664;-63.766;2022-10-19T02:59:13;1.33;;;1.00;;
59974;SDS011;62136;-35.664;-63.766;2022-10-19T03:01:40;2.75;;;1.20;;
59974;SDS011;62136;-35.664;-63.766;2022-10-19T03:04:07;2.70;;;1.27;;
59974;SDS011;62136;-35.664;-63.766;2022-10-19T03:06:37;3.95;;;1.50;;
59974;SDS011;62136;-35.664;-63.766;2022-10-19T03:09:04;2.85;;;1.10;;
59974;SDS011;62136;-35.664;-63.766;2022-10-19T03:11:31;1.92;;;1.20;;
59974;SDS011;62136;-35.664;-63.766;2022-10-19T03:13:58;2.88;;;1.42;;
59974;SDS011;62136;-35.664;-63.766;2022-10-19T03:16:25;3.70;;;1.27;;
59974;SDS011;62136;-35.664;-63.766;2022-10-19T03:18:55;2.25;;;1.42;;
59974;SDS011;62136;-35.664;-63.766;2022-10-19T03:21:25;3.17;;;1.35;;
59974;SDS011;62136;-35.664;-63.766;2022-10-19T03:23:52;2.40;;;1.35;;
59974;SDS011;62136;-35.664;-63.766;2022-10-19T03:26:22;2.33;;;0.90;;
59974;SDS011;62136;-35.664;-63.766;2022-10-19T03:28:52;2.72;;;1.00;;
59974;SDS011;62136;-35.664;-63.766;2022-10-19T03:31:19;2.70;;;1.00;;
59974;SDS011;62136;-35.664;-63.766;2022-10-19T03:33:46;1.80;;;1.20;;
59974;SDS011;62136;-35.664;-63.766;2022-10-19T03:36:25;3.15;;;1.20;;
59974;SDS011;62136;-35.664;-63.766;2022-10-19T03:38:53;1.73;;;1.10;;
59974;SDS011;62136;-35.664;-63.766;2022-10-19T03:41:23;2.60;;;1.10;;
59974;SDS011;62136;-35.664;-63.766;2022-10-19T03:43:51;4.18;;;1.30;;
59974;SDS011;62136;-35.664;-63.766;2022-10-19T03:46:18;3.92;;;1.40;;
59974;SDS011;62136;-35.664;-63.766;2022-10-19T03:48:46;4.05;;;1.30;;
59974;SDS011;62136;-35.664;-63.766;2022-10-19T03:51:14;2.20;;;1.00;;
59974;SDS011;62136;-35.664;-63.766;2022-10-19T03:53:46;4.25;;;1.33;;
59974;SDS011;62136;-35.664;-63.766;2022-10-19T03:56:18;2.85;;;1.00;;
59974;SDS011;62136;-35.664;-63.766;2022-10-19T03:58:47;2.60;;;1.30;;
59974;SDS011;62136;-35.664;-63.766;2022-10-19T04:01:22;2.92;;;1.40;;
59974;SDS011;62136;-35.664;-63.766;2022-10-19T04:03:54;2.50;;;1.70;;
59974;SDS011;62136;-35.664;-63.766;2022-10-19T04:06:33;4.20;;;1.50;;
59974;SDS011;62136;-35.664;-63.766;2022-10-19T04:09:03;2.90;;;1.02;;
59974;SDS011;62136;-35.664;-63.766;2022-10-19T04:11:31;1.98;;;1.20;;
59974;SDS011;62136;-35.664;-63.766;2022-10-19T04:13:59;2.47;;;1.10;;
59974;SDS011;62136;-35.664;-63.766;2022-10-19T04:16:27;2.60;;;1.20;;
59974;SDS011;62136;-35.664;-63.766;2022-10-19T04:18:55;2.42;;;1.35;;
59974;SDS011;62136;-35.664;-63.766;2022-10-19T04:24:07;2.05;;;1.20;;
59974;SDS011;62136;-35.664;-63.766;2022-10-19T04:26:46;2.53;;;1.50;;
59974;SDS011;62136;-35.664;-63.766;2022-10-19T04:29:15;4.63;;;1.67;;
59974;SDS011;62136;-35.664;-63.766;2022-10-19T04:31:44;4.20;;;1.27;;
59974;SDS011;62136;-35.664;-63.766;2022-10-19T04:34:11;3.10;;;1.17;;
59974;SDS011;62136;-35.664;-63.766;2022-10-19T04:36:38;3.15;;;1.25;;
59974;SDS011;62136;-35.664;-63.766;2022-10-19T04:39:05;1.17;;;0.95;;
59974;SDS011;62136;-35.664;-63.766;2022-10-19T04:41:32;2.45;;;1.20;;
59974;SDS011;62136;-35.664;-63.766;2022-10-19T04:44:01;2.42;;;1.20;;
59974;SDS011;62136;-35.664;-63.766;2022-10-19T04:46:31;1.25;;;1.10;;
59974;SDS011;62136;-35.664;-63.766;2022-10-19T04:48:58;2.53;;;1.25;;
59974;SDS011;62136;-35.664;-63.766;2022-10-19T04:51:28;3.83;;;1.30;;
59974;SDS011;62136;-35.664;-63.766;2022-10-19T04:53:55;2.15;;;1.08;;
59974;SDS011;62136;-35.664;-63.766;2022-10-19T04:56:23;4.25;;;1.23;;
59974;SDS011;62136;-35.664;-63.766;2022-10-19T04:58:53;1.67;;;0.93;;
59974;SDS011;62136;-35.664;-63.766;2022-10-19T05:01:22;1.55;;;1.20;;
59974;SDS011;62136;-35.664;-63.766;2022-10-19T05:04:00;2.03;;;1.08;;
59974;SDS011;62136;-35.664;-63.766;2022-10-19T05:06:28;2.67;;;1.15;;
59974;SDS011;62136;-35.664;-63.766;2022-10-19T05:08:56;2.63;;;1.10;;
59974;SDS011;62136;-35.664;-63.766;2022-10-19T05:11:26;2.67;;;1.23;;
59974;SDS011;62136;-35.664;-63.766;2022-10-19T05:13:54;2.60;;;1.20;;
59974;SDS011;62136;-35.664;-63.766;2022-10-19T05:16:22;1.42;;;0.93;;
59974;SDS011;62136;-35.664;-63.766;2022-10-19T05:18:50;2.33;;;0.95;;
59974;SDS011;62136;-35.664;-63.766;2022-10-19T05:21:23;2.05;;;1.10;;
59974;SDS011;62136;-35.664;-63.766;2022-10-19T05:23:52;3.00;;;1.17;;
59974;SDS011;62136;-35.664;-63.766;2022-10-19T05:26:21;2.72;;;1.08;;
59974;SDS011;62136;-35.664;-63.766;2022-10-19T05:28:50;2.28;;;1.35;;
59974;SDS011;62136;-35.664;-63.766;2022-10-19T05:31:24;2.35;;;1.08;;
59974;SDS011;62136;-35.664;-63.766;2022-10-19T05:33:53;3.13;;;1.40;;
59974;SDS011;62136;-35.664;-63.766;2022-10-19T05:36:25;1.70;;;1.00;;
59974;SDS011;62136;-35.664;-63.766;2022-10-19T05:38:56;3.47;;;1.35;;
59974;SDS011;62136;-35.664;-63.766;2022-10-19T05:41:26;3.47;;;1.02;;
59974;SDS011;62136;-35.664;-63.766;2022-10-19T05:43:56;2.03;;;1.20;;
59974;SDS011;62136;-35.664;-63.766;2022-10-19T05:46:25;2.85;;;1.20;;
59974;SDS011;62136;-35.664;-63.766;2022-10-19T05:48:53;2.33;;;1.40;;
59974;SDS011;62136;-35.664;-63.766;2022-10-19T05:51:21;2.78;;;1.25;;
59974;SDS011;62136;-35.664;-63.766;2022-10-19T05:53:49;2.50;;;1.00;;
59974;SDS011;62136;-35.664;-63.766;2022-10-19T05:56:21;2.38;;;1.20;;
59974;SDS011;62136;-35.664;-63.766;2022-10-19T05:58:53;2.67;;;1.20;;
59974;SDS011;62136;-35.664;-63.766;2022-10-19T06:01:23;1.80;;;1.05;;
59974;SDS011;62136;-35.664;-63.766;2022-10-19T06:03:51;1.40;;;1.10;;
59974;SDS011;62136;-35.664;-63.766;2022-10-19T06:06:20;2.35;;;1.15;;
59974;SDS011;62136;-35.664;-63.766;2022-10-19T06:08:48;2.38;;;1.13;;
59974;SDS011;62136;-35.664;-63.766;2022-10-19T06:11:17;2.80;;;1.40;;
59974;SDS011;62136;-35.664;-63.766;2022-10-19T06:13:49;2.78;;;1.00;;
59974;SDS011;62136;-35.664;-63.766;2022-10-19T06:16:18;2.80;;;1.17;;
59974;SDS011;62136;-35.664;-63.766;2022-10-19T06:18:46;3.50;;;1.02;;
59974;SDS011;62136;-35.664;-63.766;2022-10-19T06:21:14;3.92;;;1.30;;
59974;SDS011;62136;-35.664;-63.766;2022-10-19T06:23:42;2.40;;;1.20;;
59974;SDS011;62136;-35.664;-63.766;2022-10-19T06:26:11;1.23;;;0.93;;
59974;SDS011;62136;-35.664;-63.766;2022-10-19T06:28:39;2.70;;;0.98;;
59974;SDS011;62136;-35.664;-63.766;2022-10-19T06:31:08;2.70;;;1.17;;
59974;SDS011;62136;-35.664;-63.766;2022-10-19T06:33:35;2.78;;;1.20;;
59974;SDS011;62136;-35.664;-63.766;2022-10-19T06:36:08;3.03;;;1.10;;
59974;SDS011;62136;-35.664;-63.766;2022-10-19T06:38:40;2.55;;;1.00;;
59974;SDS011;62136;-35.664;-63.766;2022-10-19T06:41:08;3.15;;;1.23;;
59974;SDS011;62136;-35.664;-63.766;2022-10-19T06:43:36;1.98;;;0.90;;
59974;SDS011;62136;-35.664;-63.766;2022-10-19T06:46:07;2.58;;;1.30;;
59974;SDS011;62136;-35.664;-63.766;2022-10-19T06:48:36;1.55;;;1.20;;
59974;SDS011;62136;-35.664;-63.766;2022-10-19T06:51:04;3.25;;;1.20;;
59974;SDS011;62136;-35.664;-63.766;2022-10-19T06:53:34;2.70;;;1.23;;
59974;SDS011;62136;-35.664;-63.766;2022-10-19T06:56:02;4.07;;;1.20;;
59974;SDS011;62136;-35.664;-63.766;2022-10-19T06:58:34;3.83;;;1.10;;
59974;SDS011;62136;-35.664;-63.766;2022-10-19T07:01:03;1.73;;;1.45;;
59974;SDS011;62136;-35.664;-63.766;2022-10-19T07:03:34;3.13;;;1.23;;
59974;SDS011;62136;-35.664;-63.766;2022-10-19T07:06:03;2.13;;;1.20;;
59974;SDS011;62136;-35.664;-63.766;2022-10-19T07:08:33;3.30;;;1.20;;
59974;SDS011;62136;-35.664;-63.766;2022-10-19T07:11:02;3.00;;;1.50;;
59974;SDS011;62136;-35.664;-63.766;2022-10-19T07:13:31;2.80;;;1.20;;
59974;SDS011;62136;-35.664;-63.766;2022-10-19T07:16:00;1.75;;;0.90;;
59974;SDS011;62136;-35.664;-63.766;2022-10-19T07:18:31;1.02;;;0.85;;
59974;SDS011;62136;-35.664;-63.766;2022-10-19T07:21:00;2.40;;;1.63;;
59974;SDS011;62136;-35.664;-63.766;2022-10-19T07:23:30;3.00;;;0.90;;
59974;SDS011;62136;-35.664;-63.766;2022-10-19T07:26:02;2.33;;;1.08;;
59974;SDS011;62136;-35.664;-63.766;2022-10-19T07:28:36;2.38;;;1.20;;
59974;SDS011;62136;-35.664;-63.766;2022-10-19T07:33:34;1.83;;;1.08;;
59974;SDS011;62136;-35.664;-63.766;2022-10-19T07:36:03;2.15;;;1.00;;
59974;SDS011;62136;-35.664;-63.766;2022-10-19T07:38:33;2.13;;;1.30;;
59974;SDS011;62136;-35.664;-63.766;2022-10-19T07:41:05;1.92;;;1.10;;
59974;SDS011;62136;-35.664;-63.766;2022-10-19T07:43:35;3.97;;;1.67;;
59974;SDS011;62136;-35.664;-63.766;2022-10-19T07:46:05;1.52;;;1.35;;
59974;SDS011;62136;-35.664;-63.766;2022-10-19T07:48:36;3.30;;;1.17;;
59974;SDS011;62136;-35.664;-63.766;2022-10-19T07:51:04;1.95;;;0.90;;
59974;SDS011;62136;-35.664;-63.766;2022-10-19T07:53:33;2.63;;;1.20;;
59974;SDS011;62136;-35.664;-63.766;2022-10-19T07:58:35;3.88;;;1.38;;
59974;SDS011;62136;-35.664;-63.766;2022-10-19T08:01:04;1.83;;;1.10;;
59974;SDS011;62136;-35.664;-63.766;2022-10-19T08:03:32;2.72;;;1.40;;
59974;SDS011;62136;-35.664;-63.766;2022-10-19T08:06:03;3.97;;;1.02;;
59974;SDS011;62136;-35.664;-63.766;2022-10-19T08:08:33;2.08;;;1.02;;
59974;SDS011;62136;-35.664;-63.766;2022-10-19T08:11:08;3.65;;;1.20;;
59974;SDS011;62136;-35.664;-63.766;2022-10-19T08:13:37;2.40;;;0.95;;
59974;SDS011;62136;-35.664;-63.766;2022-10-19T08:16:04;1.98;;;1.10;;
59974;SDS011;62136;-35.664;-63.766;2022-10-19T08:18:43;3.25;;;1.38;;
59974;SDS011;62136;-35.664;-63.766;2022-10-19T08:21:10;2.58;;;1.33;;
59974;SDS011;62136;-35.664;-63.766;2022-10-19T08:23:37;3.38;;;1.00;;
59974;SDS011;62136;-35.664;-63.766;2022-10-19T08:26:06;4.93;;;1.15;;
59974;SDS011;62136;-35.664;-63.766;2022-10-19T08:28:32;1.25;;;1.13;;
59974;SDS011;62136;-35.664;-63.766;2022-10-19T08:31:07;2.15;;;1.10;;
59974;SDS011;62136;-35.664;-63.766;2022-10-19T08:33:36;2.42;;;1.30;;
59974;SDS011;62136;-35.664;-63.766;2022-10-19T08:36:04;3.85;;;1.10;;
59974;SDS011;62136;-35.664;-63.766;2022-10-19T08:38:33;1.83;;;1.30;;
59974;SDS011;62136;-35.664;-63.766;2022-10-19T08:41:11;2.15;;;1.00;;
59974;SDS011;62136;-35.664;-63.766;2022-10-19T08:49:26;2.25;;;1.25;;
59974;SDS011;62136;-35.664;-63.766;2022-10-19T08:51:56;3.50;;;1.30;;
59974;SDS011;62136;-35.664;-63.766;2022-10-19T08:54:33;1.23;;;1.05;;
59974;SDS011;62136;-35.664;-63.766;2022-10-19T09:08:39;2.72;;;0.98;;
59974;SDS011;62136;-35.664;-63.766;2022-10-19T09:11:07;1.90;;;1.20;;
59974;SDS011;62136;-35.664;-63.766;2022-10-19T09:13:39;2.60;;;1.02;;
59974;SDS011;62136;-35.664;-63.766;2022-10-19T09:16:15;3.42;;;1.52;;
59974;SDS011;62136;-35.664;-63.766;2022-10-19T09:18:44;1.52;;;1.08;;
59974;SDS011;62136;-35.664;-63.766;2022-10-19T09:21:13;2.22;;;1.17;;
59974;SDS011;62136;-35.664;-63.766;2022-10-19T09:26:29;3.80;;;1.15;;
59974;SDS011;62136;-35.664;-63.766;2022-10-19T09:29:05;3.28;;;1.30;;
59974;SDS011;62136;-35.664;-63.766;2022-10-19T09:31:48;2.17;;;1.35;;
59974;SDS011;62136;-35.664;-63.766;2022-10-19T09:34:26;2.00;;;0.95;;
59974;SDS011;62136;-35.664;-63.766;2022-10-19T09:37:00;1.88;;;1.08;;
59974;SDS011;62136;-35.664;-63.766;2022-10-19T09:39:27;2.20;;;1.35;;
59974;SDS011;62136;-35.664;-63.766;2022-10-19T09:42:03;3.00;;;1.40;;
59974;SDS011;62136;-35.664;-63.766;2022-10-19T09:44:53;4.18;;;1.13;;
59974;SDS011;62136;-35.664;-63.766;2022-10-19T09:53:02;2.40;;;1.13;;
59974;SDS011;62136;-35.664;-63.766;2022-10-19T10:00:42;2.47;;;1.33;;
59974;SDS011;62136;-35.664;-63.766;2022-10-19T10:03:24;2.83;;;1.23;;
59974;SDS011;62136;-35.664;-63.766;2022-10-19T10:05:58;4.10;;;1.52;;
59974;SDS011;62136;-35.664;-63.766;2022-10-19T10:08:32;4.13;;;1.73;;
59974;SDS011;62136;-35.664;-63.766;2022-10-19T10:11:09;2.30;;;1.10;;
59974;SDS011;62136;-35.664;-63.766;2022-10-19T10:13:41;2.47;;;1.20;;
59974;SDS011;62136;-35.664;-63.766;2022-10-19T10:16:14;2.83;;;1.25;;
59974;SDS011;62136;-35.664;-63.766;2022-10-19T10:18:48;2.22;;;1.25;;
59974;SDS011;62136;-35.664;-63.766;2022-10-19T10:21:20;2.40;;;1.10;;
59974;SDS011;62136;-35.664;-63.766;2022-10-19T10:24:09;2.10;;;1.05;;
59974;SDS011;62136;-35.664;-63.766;2022-10-19T10:26:43;2.38;;;1.50;;
59974;SDS011;62136;-35.664;-63.766;2022-10-19T10:29:22;3.42;;;1.30;;
59974;SDS011;62136;-35.664;-63.766;2022-10-19T10:34:29;4.63;;;1.30;;
59974;SDS011;62136;-35.664;-63.766;2022-10-19T10:36:59;4.32;;;1.52;;
59974;SDS011;62136;-35.664;-63.766;2022-10-19T10:39:28;2.10;;;1.20;;
59974;SDS011;62136;-35.664;-63.766;2022-10-19T10:42:00;1.98;;;1.23;;
59974;SDS011;62136;-35.664;-63.766;2022-10-19T10:44:32;2.60;;;1.30;;
59974;SDS011;62136;-35.664;-63.766;2022-10-19T10:47:02;3.10;;;1.38;;
59974;SDS011;62136;-35.664;-63.766;2022-10-19T10:49:34;5.15;;;1.60;;
59974;SDS011;62136;-35.664;-63.766;2022-10-19T10:52:09;2.47;;;1.45;;
59974;SDS011;62136;-35.664;-63.766;2022-10-19T10:54:39;3.75;;;1.45;;
59974;SDS011;62136;-35.664;-63.766;2022-10-19T10:57:21;2.63;;;1.35;;
59974;SDS011;62136;-35.664;-63.766;2022-10-19T11:10:36;2.85;;;1.77;;
59974;SDS011;62136;-35.664;-63.766;2022-10-19T11:16:03;4.88;;;1.52;;
59974;SDS011;62136;-35.664;-63.766;2022-10-19T11:18:44;3.13;;;2.00;;
59974;SDS011;62136;-35.664;-63.766;2022-10-19T11:21:30;6.72;;;1.90;;
59974;SDS011;62136;-35.664;-63.766;2022-10-19T11:24:13;4.30;;;2.08;;
59974;SDS011;62136;-35.664;-63.766;2022-10-19T11:35:44;6.90;;;2.40;;
59974;SDS011;62136;-35.664;-63.766;2022-10-19T11:54:09;7.75;;;3.92;;
59974;SDS011;62136;-35.664;-63.766;2022-10-19T12:02:46;11.38;;;5.70;;
59974;SDS011;62136;-35.664;-63.766;2022-10-19T12:05:15;10.07;;;5.20;;
59974;SDS011;62136;-35.664;-63.766;2022-10-19T12:08:15;10.18;;;5.40;;
59974;SDS011;62136;-35.664;-63.766;2022-10-19T12:11:51;7.60;;;5.75;;
59974;SDS011;62136;-35.664;-63.766;2022-10-19T12:14:03;8.23;;;5.30;;
59974;SDS011;62136;-35.664;-63.766;2022-10-19T12:16:39;8.23;;;3.45;;
59974;SDS011;62136;-35.664;-63.766;2022-10-19T12:19:15;7.05;;;4.32;;
59974;SDS011;62136;-35.664;-63.766;2022-10-19T12:21:49;7.25;;;4.32;;
59974;SDS011;62136;-35.664;-63.766;2022-10-19T12:24:23;8.25;;;5.10;;
59974;SDS011;62136;-35.664;-63.766;2022-10-19T12:26:53;11.13;;;5.55;;
59974;SDS011;62136;-35.664;-63.766;2022-10-19T12:29:24;6.28;;;5.15;;
59974;SDS011;62136;-35.664;-63.766;2022-10-19T12:32:01;8.73;;;3.47;;
59974;SDS011;62136;-35.664;-63.766;2022-10-19T12:43:09;8.43;;;2.83;;
59974;SDS011;62136;-35.664;-63.766;2022-10-19T12:45:48;6.65;;;3.85;;
59974;SDS011;62136;-35.664;-63.766;2022-10-19T12:48:25;9.18;;;5.97;;
59974;SDS011;62136;-35.664;-63.766;2022-10-19T12:53:22;12.05;;;6.10;;
59974;SDS011;62136;-35.664;-63.766;2022-10-19T12:56:14;8.55;;;5.70;;
59974;SDS011;62136;-35.664;-63.766;2022-10-19T12:58:48;9.05;;;5.60;;
59974;SDS011;62136;-35.664;-63.766;2022-10-19T13:01:27;5.80;;;3.75;;
59974;SDS011;62136;-35.664;-63.766;2022-10-19T13:04:11;10.73;;;3.60;;
59974;SDS011;62136;-35.664;-63.766;2022-10-19T13:14:51;6.72;;;3.70;;
59974;SDS011;62136;-35.664;-63.766;2022-10-19T13:22:48;4.80;;;3.28;;
59974;SDS011;62136;-35.664;-63.766;2022-10-19T13:25:39;5.13;;;2.97;;
59974;SDS011;62136;-35.664;-63.766;2022-10-19T13:30:57;7.18;;;3.08;;
59974;SDS011;62136;-35.664;-63.766;2022-10-19T13:41:12;5.07;;;2.40;;
59974;SDS011;62136;-35.664;-63.766;2022-10-19T13:47:17;2.97;;;2.03;;
59974;SDS011;62136;-35.664;-63.766;2022-10-19T13:52:11;3.80;;;2.17;;
59974;SDS011;62136;-35.664;-63.766;2022-10-19T14:00:56;2.97;;;1.98;;
59974;SDS011;62136;-35.664;-63.766;2022-10-19T14:06:11;4.10;;;2.03;;
59974;SDS011;62136;-35.664;-63.766;2022-10-19T14:11:45;3.58;;;1.70;;
59974;SDS011;62136;-35.664;-63.766;2022-10-19T14:14:21;3.97;;;1.90;;
59974;SDS011;62136;-35.664;-63.766;2022-10-19T14:16:57;3.65;;;1.92;;
59974;SDS011;62136;-35.664;-63.766;2022-10-19T14:19:32;5.35;;;2.05;;
59974;SDS011;62136;-35.664;-63.766;2022-10-19T14:22:24;3.38;;;1.88;;
59974;SDS011;62136;-35.664;-63.766;2022-10-19T14:25:18;5.60;;;1.90;;
59974;SDS011;62136;-35.664;-63.766;2022-10-19T14:28:04;3.47;;;1.70;;
59974;SDS011;62136;-35.664;-63.766;2022-10-19T14:30:34;4.43;;;1.85;;
59974;SDS011;62136;-35.664;-63.766;2022-10-19T14:33:07;6.55;;;2.42;;
59974;SDS011;62136;-35.664;-63.766;2022-10-19T14:35:45;5.22;;;1.70;;
59974;SDS011;62136;-35.664;-63.766;2022-10-19T14:38:19;3.80;;;1.60;;
59974;SDS011;62136;-35.664;-63.766;2022-10-19T14:40:54;5.05;;;2.00;;
59974;SDS011;62136;-35.664;-63.766;2022-10-19T14:43:25;6.53;;;2.03;;
59974;SDS011;62136;-35.664;-63.766;2022-10-19T14:48:36;4.60;;;1.83;;
59974;SDS011;62136;-35.664;-63.766;2022-10-19T14:57:04;4.10;;;1.63;;
59974;SDS011;62136;-35.664;-63.766;2022-10-19T14:59:38;5.95;;;2.38;;
59974;SDS011;62136;-35.664;-63.766;2022-10-19T15:05:17;5.82;;;1.92;;
59974;SDS011;62136;-35.664;-63.766;2022-10-19T15:07:47;6.97;;;2.15;;
59974;SDS011;62136;-35.664;-63.766;2022-10-19T15:10:48;4.88;;;2.05;;
59974;SDS011;62136;-35.664;-63.766;2022-10-19T15:13:18;5.70;;;2.40;;
59974;SDS011;62136;-35.664;-63.766;2022-10-19T15:15:53;8.52;;;1.98;;
59974;SDS011;62136;-35.664;-63.766;2022-10-19T15:18:22;6.00;;;2.58;;
59974;SDS011;62136;-35.664;-63.766;2022-10-19T15:21:01;5.43;;;2.35;;
59974;SDS011;62136;-35.664;-63.766;2022-10-19T15:23:41;8.25;;;2.92;;
59974;SDS011;62136;-35.664;-63.766;2022-10-19T15:26:15;3.92;;;2.60;;
59974;SDS011;62136;-35.664;-63.766;2022-10-19T15:28:44;6.90;;;3.70;;
59974;SDS011;62136;-35.664;-63.766;2022-10-19T15:31:17;8.70;;;3.67;;
59974;SDS011;62136;-35.664;-63.766;2022-10-19T15:33:51;9.03;;;3.80;;
59974;SDS011;62136;-35.664;-63.766;2022-10-19T15:36:25;12.65;;;5.18;;
59974;SDS011;62136;-35.664;-63.766;2022-10-19T15:41:32;11.02;;;4.72;;
59974;SDS011;62136;-35.664;-63.766;2022-10-19T15:44:04;9.50;;;4.32;;
59974;SDS011;62136;-35.664;-63.766;2022-10-19T15:49:51;7.82;;;4.30;;
59974;SDS011;62136;-35.664;-63.766;2022-10-19T15:52:26;7.70;;;4.25;;
59974;SDS011;62136;-35.664;-63.766;2022-10-19T15:54:58;9.90;;;4.32;;
59974;SDS011;62136;-35.664;-63.766;2022-10-19T16:02:37;9.65;;;4.20;;
59974;SDS011;62136;-35.664;-63.766;2022-10-19T16:05:05;9.43;;;4.80;;
59974;SDS011;62136;-35.664;-63.766;2022-10-19T16:07:34;10.10;;;5.18;;
59974;SDS011;62136;-35.664;-63.766;2022-10-19T16:10:03;10.55;;;5.43;;
59974;SDS011;62136;-35.664;-63.766;2022-10-19T16:12:30;9.82;;;6.38;;
59974;SDS011;62136;-35.664;-63.766;2022-10-19T16:14:57;8.63;;;4.82;;
59974;SDS011;62136;-35.664;-63.766;2022-10-19T16:17:24;12.50;;;5.97;;
59974;SDS011;62136;-35.664;-63.766;2022-10-19T16:19:51;10.20;;;5.65;;
59974;SDS011;62136;-35.664;-63.766;2022-10-19T16:22:18;11.50;;;6.35;;
59974;SDS011;62136;-35.664;-63.766;2022-10-19T16:24:45;13.18;;;6.90;;
59974;SDS011;62136;-35.664;-63.766;2022-10-19T16:27:12;10.77;;;5.70;;
59974;SDS011;62136;-35.664;-63.766;2022-10-19T16:29:41;11.23;;;5.30;;
59974;SDS011;62136;-35.664;-63.766;2022-10-19T16:32:09;12.88;;;6.32;;
59974;SDS011;62136;-35.664;-63.766;2022-10-19T16:34:36;11.25;;;6.90;;
59974;SDS011;62136;-35.664;-63.766;2022-10-19T16:37:03;13.43;;;6.53;;
59974;SDS011;62136;-35.664;-63.766;2022-10-19T16:39:30;12.05;;;6.35;;
59974;SDS011;62136;-35.664;-63.766;2022-10-19T16:41:57;11.13;;;6.00;;
59974;SDS011;62136;-35.664;-63.766;2022-10-19T16:44:24;10.73;;;5.38;;
59974;SDS011;62136;-35.664;-63.766;2022-10-19T16:46:51;9.57;;;5.47;;
59974;SDS011;62136;-35.664;-63.766;2022-10-19T16:49:21;11.10;;;5.45;;
59974;SDS011;62136;-35.664;-63.766;2022-10-19T16:51:48;9.75;;;5.00;;
59974;SDS011;62136;-35.664;-63.766;2022-10-19T16:54:15;9.43;;;4.90;;
59974;SDS011;62136;-35.664;-63.766;2022-10-19T16:56:46;9.23;;;4.80;;
59974;SDS011;62136;-35.664;-63.766;2022-10-19T16:59:14;8.82;;;5.55;;
59974;SDS011;62136;-35.664;-63.766;2022-10-19T17:01:43;8.68;;;5.65;;
59974;SDS011;62136;-35.664;-63.766;2022-10-19T17:04:11;10.88;;;6.68;;
59974;SDS011;62136;-35.664;-63.766;2022-10-19T17:06:39;10.18;;;6.57;;
59974;SDS011;62136;-35.664;-63.766;2022-10-19T17:09:07;14.82;;;6.55;;
59974;SDS011;62136;-35.664;-63.766;2022-10-19T17:11:35;20.52;;;7.13;;
59974;SDS011;62136;-35.664;-63.766;2022-10-19T17:14:09;18.92;;;6.25;;
59974;SDS011;62136;-35.664;-63.766;2022-10-19T17:16:37;14.27;;;6.28;;
59974;SDS011;62136;-35.664;-63.766;2022-10-19T17:19:08;15.02;;;6.40;;
59974;SDS011;62136;-35.664;-63.766;2022-10-19T17:21:57;10.27;;;6.53;;
59974;SDS011;62136;-35.664;-63.766;2022-10-19T17:24:26;11.63;;;5.97;;
59974;SDS011;62136;-35.664;-63.766;2022-10-19T17:26:53;12.05;;;5.90;;
59974;SDS011;62136;-35.664;-63.766;2022-10-19T17:29:20;10.75;;;5.78;;
59974;SDS011;62136;-35.664;-63.766;2022-10-19T17:31:48;11.13;;;5.82;;
59974;SDS011;62136;-35.664;-63.766;2022-10-19T17:34:15;13.10;;;6.05;;